Time;durP1;ratioP1;P1;durP2;ratioP2;P2;SDS_P1;SDS_P2;PMS_P1;PMS_P2;Temp;Humidity;BMP_temperature;BMP_pressure;BME280_temperature;BME280_humidity;BME280_pressure;Samples;Min_cycle;Max_cycle;Signal;HPM_P1;HPM_P2
2022/12/25 00:01:58;;;;;;;15.63;8.35;;;;;;;8.94;70.91;100405.63;4914891;28;101200;-78
2022/12/25 00:04:23;;;;;;;16.02;9.10;;;;;;;8.85;70.93;100400.63;4911741;28;97331;-78
2022/12/25 00:06:49;;;;;;;21.08;11.10;;;;;;;8.96;70.75;100421.28;4946472;28;97300;-78
2022/12/25 00:09:14;;;;;;;20.40;10.60;;;;;;;8.91;70.77;100417.94;4946797;28;101847;-78
2022/12/25 00:11:40;;;;;;;22.20;12.07;;;;;;;8.96;70.60;100421.28;4963105;28;97621;-78
2022/12/25 00:14:05;;;;;;;18.92;11.40;;;;;;;8.94;70.70;100423.94;4946699;28;96804;-77
2022/12/25 00:16:31;;;;;;;19.23;11.75;;;;;;;8.86;71.04;100415.44;4946833;28;96912;-78
2022/12/25 00:19:00;;;;;;;20.67;12.05;;;;;;;8.95;70.63;100435.28;4899041;28;101956;-78
2022/12/25 00:21:26;;;;;;;24.45;12.65;;;;;;;8.91;70.97;100434.50;4910918;28;101041;-78
2022/12/25 00:23:54;;;;;;;24.85;12.80;;;;;;;8.88;70.78;100426.72;4927463;28;96856;-79
2022/12/25 00:26:20;;;;;;;18.95;9.88;;;;;;;9.02;71.05;100444.72;4955153;28;96943;-78
2022/12/25 00:28:45;;;;;;;17.70;9.60;;;;;;;9.03;70.66;100442.03;4947293;28;97904;-78
2022/12/25 00:31:13;;;;;;;11.52;6.78;;;;;;;9.06;70.83;100438.47;4946546;28;97313;-79
2022/12/25 00:33:40;;;;;;;10.20;5.68;;;;;;;9.00;70.39;100428.19;4914806;28;97113;-78
2022/12/25 00:36:07;;;;;;;11.57;5.80;;;;;;;9.06;70.85;100443.72;4911661;28;97034;-77
2022/12/25 00:38:34;;;;;;;9.95;5.13;;;;;;;9.09;70.95;100438.41;4940967;28;97647;-78
2022/12/25 00:41:10;;;;;;;11.93;5.53;;;;;;;9.09;71.03;100448.88;4931045;28;98044;-78
2022/12/25 00:43:36;;;;;;;9.95;5.28;;;;;;;9.03;70.65;100449.91;4931123;28;96803;-81
2022/12/25 00:46:03;;;;;;;8.70;4.70;;;;;;;8.93;71.31;100432.72;4915196;28;96844;-81
2022/12/25 00:48:30;;;;;;;11.05;5.05;;;;;;;8.98;70.84;100451.75;4910491;28;101483;-78
2022/12/25 00:50:57;;;;;;;7.72;4.75;;;;;;;8.96;70.83;100445.72;4944565;28;101482;-78
2022/12/25 00:53:23;;;;;;;11.18;5.25;;;;;;;8.95;70.71;100454.47;4946680;28;97475;-78
2022/12/25 00:55:53;;;;;;;8.50;5.10;;;;;;;8.91;70.96;100458.06;4930646;28;96841;-78
2022/12/25 00:58:18;;;;;;;11.23;5.38;;;;;;;8.88;70.66;100457.28;4930459;28;97994;-77
2022/12/25 01:00:44;;;;;;;10.20;4.78;;;;;;;8.83;71.26;100463.47;4929854;28;101465;-78
2022/12/25 01:03:09;;;;;;;10.90;4.55;;;;;;;8.83;70.83;100465.25;4916905;28;96864;-78
2022/12/25 01:05:35;;;;;;;10.05;5.38;;;;;;;8.81;70.53;100457.44;4930343;28;97474;-78
2022/12/25 01:08:00;;;;;;;11.40;5.95;;;;;;;8.74;70.70;100471.56;4930431;28;101465;-78
2022/12/25 01:10:26;;;;;;;12.93;6.30;;;;;;;8.70;70.57;100469.06;4962652;28;97377;-78
2022/12/25 01:12:52;;;;;;;14.00;6.40;;;;;;;8.68;70.62;100479.56;4929522;28;96939;-78
2022/12/25 01:15:17;;;;;;;9.45;5.70;;;;;;;8.66;70.30;100480.50;4946206;28;96964;-78
2022/12/25 01:17:43;;;;;;;10.45;6.10;;;;;;;8.67;70.46;100488.31;4946739;28;101588;-78
2022/12/25 01:20:10;;;;;;;11.13;5.78;;;;;;;8.62;70.67;100495.41;4914251;28;97429;-78
2022/12/25 01:22:36;;;;;;;11.90;6.22;;;;;;;8.64;70.65;100493.63;4963080;28;97200;-78
2022/12/25 01:25:01;;;;;;;14.82;6.82;;;;;;;8.66;70.72;100494.44;4946113;28;96782;-77
2022/12/25 01:27:27;;;;;;;11.57;6.47;;;;;;;8.67;70.67;100500.53;4949118;28;97386;-77
2022/12/25 01:29:52;;;;;;;12.63;6.43;;;;;;;8.64;70.61;100500.59;4917456;28;101756;-77
2022/12/25 01:32:18;;;;;;;10.23;6.30;;;;;;;8.68;70.04;100504.88;4917178;28;96741;-78
2022/12/25 01:34:44;;;;;;;12.27;6.22;;;;;;;8.59;70.77;100487.63;4950106;28;96897;-77
2022/12/25 01:37:10;;;;;;;10.98;5.45;;;;;;;8.59;70.61;100482.41;4949150;28;100790;-77
2022/12/25 01:39:35;;;;;;;9.88;5.53;;;;;;;8.68;70.53;100503.13;4933144;28;98412;-77
2022/12/25 01:42:01;;;;;;;10.57;5.63;;;;;;;8.52;70.47;100478.19;4966254;28;96767;-80
2022/12/25 01:44:36;;;;;;;9.77;5.70;;;;;;;8.68;70.31;100504.88;4949389;28;96928;-80
2022/12/25 01:47:02;;;;;;;9.23;5.15;;;;;;;8.68;70.83;100502.25;4933741;28;97404;-80
2022/12/25 01:49:28;;;;;;;12.48;5.40;;;;;;;8.57;70.16;100482.41;4916959;28;97392;-80
2022/12/25 01:51:57;;;;;;;14.38;5.78;;;;;;;8.61;70.68;100486.72;4933474;28;96797;-80
2022/12/25 01:54:26;;;;;;;11.35;5.78;;;;;;;8.60;70.38;100486.72;4913791;28;96910;-80
2022/12/25 01:56:52;;;;;;;11.80;4.85;;;;;;;8.59;70.62;100478.03;4940621;28;97441;-78
2022/12/25 01:59:20;;;;;;;10.10;5.32;;;;;;;8.72;70.73;100494.28;4916050;28;101807;-78
2022/12/25 02:01:46;;;;;;;9.43;4.85;;;;;;;8.72;70.83;100494.28;4944015;28;97175;-78
2022/12/25 02:04:37;;;;;;;10.43;4.80;;;;;;;8.72;70.82;100503.91;4941538;28;97004;-78
2022/12/25 02:07:05;;;;;;;9.90;4.57;;;;;;;8.72;70.86;100503.91;4931359;28;100378;-78
2022/12/25 02:09:31;;;;;;;8.90;4.72;;;;;;;8.75;70.86;100501.22;4933699;28;98189;-78
2022/12/25 02:11:58;;;;;;;9.65;5.05;;;;;;;8.69;70.51;100489.13;4921060;28;96804;-78
2022/12/25 02:14:29;;;;;;;11.50;5.43;;;;;;;8.72;70.81;100496.03;4925834;28;96907;-77
2022/12/25 02:17:10;;;;;;;10.52;5.85;;;;;;;8.70;70.54;100503.09;4926141;28;101026;-78
2022/12/25 02:19:55;;;;;;;11.57;6.57;;;;;;;8.72;70.76;100499.50;4932718;28;101040;-78
2022/12/25 02:22:27;;;;;;;11.45;6.22;;;;;;;8.75;70.87;100507.28;4931144;28;97454;-78
2022/12/25 02:25:31;;;;;;;10.40;6.00;;;;;;;8.76;70.83;100497.72;4954549;28;96845;-78
2022/12/25 02:28:23;;;;;;;12.90;6.10;;;;;;;8.65;70.87;100481.41;4929930;28;100759;-78
2022/12/25 02:30:55;;;;;;;12.05;6.45;;;;;;;8.71;71.14;100489.09;4914558;28;97970;-78
2022/12/25 02:36:21;;;;;;;10.95;5.00;;;;;;;8.75;70.66;100517.75;4951127;28;96980;-79
2022/12/25 02:41:38;;;;;;;12.23;4.47;;;;;;;8.72;70.73;100520.47;4918364;28;97962;-78
2022/12/25 03:11:29;;;;;;;7.82;4.55;;;;;;;8.28;69.75;100505.72;4933344;28;96710;-78
2022/12/25 03:11:47;;;;;;;10.65;4.90;;;;;;;8.28;69.88;100518.81;4958543;28;98920;-78
2022/12/25 03:16:57;;;;;;;9.27;4.93;;;;;;;8.28;69.93;100532.75;4941659;28;97299;-78
2022/12/25 03:27:45;;;;;;;11.18;5.43;;;;;;;8.10;69.15;100554.06;4938070;28;96808;-78
2022/12/25 03:33:06;;;;;;;8.20;4.95;;;;;;;8.04;68.78;100560.25;4937656;28;101546;-77
2022/12/25 03:35:44;;;;;;;11.25;4.97;;;;;;;8.02;68.78;100571.63;4914622;28;101234;-78
2022/12/25 04:37:12;;;;;;;9.75;5.55;;;;;;;7.43;67.80;100587.53;4933081;28;96731;-78
2022/12/25 04:39:37;;;;;;;10.18;5.15;;;;;;;7.29;68.02;100559.00;4946141;28;101465;-78
2022/12/25 04:42:03;;;;;;;13.32;5.93;;;;;;;7.37;67.64;100582.41;4947664;28;97861;-78
2022/12/25 04:44:28;;;;;;;13.48;5.22;;;;;;;7.37;67.79;100588.47;4913841;28;96786;-80
2022/12/25 04:46:54;;;;;;;9.18;5.00;;;;;;;7.34;67.72;100595.50;4930509;28;96979;-78
2022/12/25 04:49:20;;;;;;;8.75;4.65;;;;;;;7.22;67.12;100581.75;4963913;28;97498;-78
2022/12/25 04:51:45;;;;;;;10.18;5.57;;;;;;;7.31;66.97;100587.72;4946224;28;101615;-78
2022/12/25 04:54:11;;;;;;;10.13;4.75;;;;;;;7.28;67.01;100598.22;4946937;28;96727;-78
2022/12/25 04:56:36;;;;;;;8.80;4.63;;;;;;;7.12;67.11;100590.63;4929951;28;96901;-78
2022/12/25 04:59:02;;;;;;;10.02;5.03;;;;;;;7.19;66.61;100600.09;4930672;28;101698;-77
2022/12/25 05:01:27;;;;;;;11.25;5.32;;;;;;;7.15;67.06;100600.16;4931957;28;97355;-78
2022/12/25 05:03:53;;;;;;;10.52;5.38;;;;;;;7.15;67.00;100597.53;4933921;28;96743;-77
2022/12/25 05:06:19;;;;;;;7.65;4.82;;;;;;;7.14;67.25;100604.50;4950308;28;96960;-77
2022/12/25 05:08:44;;;;;;;11.30;5.07;;;;;;;7.10;66.86;100594.13;4949214;28;98483;-77
2022/12/25 05:11:12;;;;;;;8.90;4.93;;;;;;;7.13;66.65;100602.81;4950344;28;97380;-77
2022/12/25 05:13:38;;;;;;;9.63;5.07;;;;;;;7.07;66.71;100610.72;4946946;28;96909;-78
2022/12/25 05:16:08;;;;;;;10.00;5.22;;;;;;;6.89;66.81;100579.66;4922324;28;96910;-77
2022/12/25 05:18:34;;;;;;;8.70;4.53;;;;;;;7.06;66.91;100621.19;4933660;28;97445;-78
2022/12/25 05:21:00;;;;;;;8.75;4.65;;;;;;;7.04;67.04;100626.44;4933228;28;101426;-77
2022/12/25 05:23:25;;;;;;;11.27;5.20;;;;;;;6.89;67.05;100598.78;4934152;28;96938;-78
2022/12/25 05:25:51;;;;;;;11.50;5.32;;;;;;;6.89;67.04;100605.75;4933663;28;97367;-77
2022/12/25 05:28:17;;;;;;;9.45;5.30;;;;;;;7.03;67.03;100632.53;4949875;28;101488;-78
2022/12/25 05:30:42;;;;;;;10.27;5.00;;;;;;;7.04;67.00;100634.28;4932848;28;101363;-80
2022/12/25 05:33:08;;;;;;;8.97;4.50;;;;;;;7.04;66.94;100623.81;4917762;28;97526;-80
2022/12/25 05:35:38;;;;;;;7.80;4.40;;;;;;;6.96;67.22;100613.50;4932764;28;96892;-79
2022/12/25 05:38:04;;;;;;;10.90;5.15;;;;;;;7.07;67.12;100626.38;4933497;28;97673;-78
2022/12/25 05:40:30;;;;;;;7.10;4.55;;;;;;;7.02;66.77;100630.81;4900856;28;100952;-78
2022/12/25 05:42:56;;;;;;;10.73;5.05;;;;;;;7.02;67.03;100634.28;4949294;28;96827;-78
2022/12/25 05:45:21;;;;;;;9.52;6.05;;;;;;;6.96;67.35;100610.03;4933798;28;97194;-78
2022/12/25 05:47:47;;;;;;;8.75;5.05;;;;;;;6.95;67.22;100598.72;4948883;28;101488;-78
2022/12/25 05:50:12;;;;;;;9.20;5.22;;;;;;;7.07;67.00;100628.13;4933442;28;101522;-78
2022/12/25 05:52:38;;;;;;;11.03;6.03;;;;;;;7.03;67.36;100628.16;4916797;28;97222;-78
2022/12/25 05:55:04;;;;;;;7.60;5.10;;;;;;;7.06;67.08;100634.22;4933205;28;97143;-78
2022/12/25 05:57:30;;;;;;;10.65;5.45;;;;;;;7.07;67.16;100643.78;4949184;28;101234;-78
2022/12/25 05:59:56;;;;;;;11.48;4.95;;;;;;;7.03;67.20;100636.00;4932047;28;101807;-78
2022/12/25 06:02:21;;;;;;;9.07;5.35;;;;;;;7.04;67.38;100636.88;4949696;28;96771;-77
2022/12/25 06:04:47;;;;;;;8.50;5.22;;;;;;;6.89;66.85;100624.03;4932651;28;96783;-78
2022/12/25 06:07:12;;;;;;;8.77;5.85;;;;;;;6.93;67.26;100647.47;4965622;28;98688;-78
2022/12/25 06:09:38;;;;;;;13.52;5.93;;;;;;;6.87;67.08;100644.94;4964923;28;97438;-78
2022/12/25 06:12:03;;;;;;;7.68;5.40;;;;;;;6.85;67.12;100643.22;4965864;28;97071;-78
2022/12/25 06:14:29;;;;;;;13.18;6.13;;;;;;;6.78;66.74;100656.38;4924550;28;97339;-78
2022/12/25 06:16:54;;;;;;;10.00;5.30;;;;;;;6.81;67.12;100671.13;4943717;28;100953;-78
2022/12/25 06:19:20;;;;;;;11.00;5.65;;;;;;;6.70;67.08;100663.41;4933363;28;97957;-77
2022/12/25 06:21:46;;;;;;;12.13;5.90;;;;;;;6.77;67.20;100685.06;4912487;28;97179;-78
2022/12/25 06:24:12;;;;;;;12.50;6.72;;;;;;;6.79;66.94;100680.72;4948935;28;98379;-78
2022/12/25 06:26:37;;;;;;;13.27;6.43;;;;;;;6.84;67.58;100680.66;4931808;28;101189;-79
2022/12/25 06:29:03;;;;;;;13.30;6.30;;;;;;;6.93;68.23;100685.75;4948875;28;101227;-78
2022/12/25 06:31:29;;;;;;;12.40;6.25;;;;;;;6.78;68.55;100674.63;4932823;28;96761;-78
2022/12/25 06:33:55;;;;;;;14.50;6.40;;;;;;;6.87;68.35;100704.09;4932489;28;97550;-78
2022/12/25 06:36:23;;;;;;;11.00;6.38;;;;;;;6.79;67.64;100699.84;4933841;28;97451;-77
2022/12/25 06:38:48;;;;;;;13.00;5.85;;;;;;;6.62;67.22;100690.47;4949248;28;97408;-78
2022/12/25 06:41:22;;;;;;;13.85;6.63;;;;;;;6.70;67.18;100709.53;4913076;28;96758;-78
2022/12/25 06:43:49;;;;;;;11.15;6.47;;;;;;;6.69;67.06;100716.50;4925730;28;97469;-78
2022/12/25 06:46:15;;;;;;;16.13;6.80;;;;;;;6.65;66.88;100712.19;4915495;28;101346;-78
2022/12/25 06:48:48;;;;;;;16.33;7.38;;;;;;;6.51;66.59;100704.50;4931866;28;101442;-78
2022/12/25 06:51:18;;;;;;;13.10;6.55;;;;;;;6.59;66.90;100717.47;4950350;28;97129;-78
2022/12/25 06:53:44;;;;;;;12.88;6.80;;;;;;;6.61;66.25;100715.72;4932342;28;96863;-78
2022/12/25 06:56:15;;;;;;;11.50;6.63;;;;;;;6.54;66.70;100706.22;4914757;28;101192;-78
2022/12/25 06:58:46;;;;;;;12.67;6.27;;;;;;;6.53;66.85;100704.50;4948023;28;97884;-78
2022/12/25 07:01:42;;;;;;;10.53;6.43;;;;;;;6.52;66.41;100705.38;4914555;28;96773;-80
2022/12/25 07:04:17;;;;;;;13.35;6.97;;;;;;;6.33;66.23;100681.25;4932843;28;96861;-80
2022/12/25 07:06:43;;;;;;;15.13;7.10;;;;;;;6.48;66.08;100712.34;4947082;28;101181;-80
2022/12/25 07:09:08;;;;;;;14.48;6.93;;;;;;;6.45;66.19;100711.53;4932164;28;101372;-80
2022/12/25 07:11:34;;;;;;;11.48;6.88;;;;;;;6.30;66.15;100689.97;4915386;28;97176;-80
2022/12/25 07:14:00;;;;;;;10.60;6.95;;;;;;;6.39;66.12;100691.59;4926149;28;97538;-80
2022/12/25 07:16:25;;;;;;;13.60;6.68;;;;;;;6.40;66.42;100701.19;4923399;28;101036;-78
2022/12/25 07:18:51;;;;;;;13.82;7.72;;;;;;;6.44;66.56;100704.59;4947447;28;102054;-78
2022/12/25 07:21:19;;;;;;;16.25;8.38;;;;;;;6.38;66.55;100715.09;4931764;28;96739;-77
2022/12/25 07:23:47;;;;;;;16.00;7.95;;;;;;;6.31;66.42;100702.13;4930658;28;96909;-78
2022/12/25 07:26:13;;;;;;;14.10;8.35;;;;;;;6.39;65.99;100712.47;4912156;28;100744;-78
2022/12/25 07:28:38;;;;;;;14.50;8.35;;;;;;;6.45;66.71;100722.81;4932459;28;98146;-78
2022/12/25 07:31:06;;;;;;;16.90;8.25;;;;;;;6.31;66.28;100707.34;4947697;28;96979;-78
2022/12/25 07:33:32;;;;;;;13.20;7.15;;;;;;;6.46;66.39;100727.19;4931916;28;96961;-77
2022/12/25 07:35:58;;;;;;;13.55;7.55;;;;;;;6.48;66.43;100734.97;4946197;28;97435;-78
2022/12/25 07:38:24;;;;;;;14.27;7.73;;;;;;;6.48;66.50;100734.97;4947831;28;101200;-78
2022/12/25 07:40:50;;;;;;;12.07;7.23;;;;;;;6.47;66.36;100728.91;4930941;28;97419;-78
2022/12/25 07:43:15;;;;;;;14.45;7.95;;;;;;;6.50;66.18;100730.63;4912540;28;96968;-78
2022/12/25 07:45:41;;;;;;;13.80;7.40;;;;;;;6.51;66.16;100721.91;4927972;28;101110;-79
2022/12/25 07:48:06;;;;;;;15.83;8.47;;;;;;;6.46;66.10;100695.88;4917544;28;101070;-78
2022/12/25 07:50:32;;;;;;;16.10;7.60;;;;;;;6.62;66.15;100721.78;4912300;28;96918;-78
2022/12/25 07:52:57;;;;;;;12.77;7.13;;;;;;;6.53;66.97;100710.56;4911908;28;97194;-78
2022/12/25 07:55:23;;;;;;;12.88;7.97;;;;;;;6.52;66.82;100702.78;4947215;28;101109;-78
2022/12/25 07:57:48;;;;;;;11.88;7.47;;;;;;;6.67;66.47;100723.47;4930774;28;100267;-78
2022/12/25 08:00:15;;;;;;;17.33;8.10;;;;;;;6.78;66.42;100729.44;4963740;28;97197;-77
2022/12/25 08:02:40;;;;;;;16.43;7.87;;;;;;;6.86;66.71;100731.06;4916133;28;96802;-78
2022/12/25 08:05:06;;;;;;;13.98;8.00;;;;;;;6.89;66.82;100726.66;4946169;28;102993;-78
2022/12/25 08:07:32;;;;;;;16.40;8.98;;;;;;;6.97;66.77;100726.56;4915066;28;101410;-80
2022/12/25 08:09:57;;;;;;;15.13;8.63;;;;;;;7.03;66.74;100711.69;4930182;28;97036;-81
2022/12/25 08:12:23;;;;;;;18.50;8.70;;;;;;;7.33;66.00;100735.69;4964506;28;97100;-80
2022/12/25 08:14:48;;;;;;;13.00;7.68;;;;;;;7.50;66.38;100730.19;4901888;28;101459;-80
2022/12/25 08:17:14;;;;;;;18.92;9.70;;;;;;;7.66;65.99;100736.06;4945648;28;100801;-80
2022/12/25 08:19:39;;;;;;;14.30;9.40;;;;;;;7.85;65.79;100729.66;4931195;28;97249;-80
2022/12/25 08:22:05;;;;;;;16.48;9.63;;;;;;;7.99;65.64;100723.34;4946764;28;97426;-80
2022/12/25 08:24:31;;;;;;;11.63;7.82;;;;;;;8.15;65.34;100743.97;4963180;28;97773;-80
2022/12/25 08:26:56;;;;;;;21.77;10.50;;;;;;;8.25;65.22;100730.72;4946499;28;101294;-80
2022/12/25 08:29:22;;;;;;;20.50;9.48;;;;;;;8.43;64.99;100742.63;4947723;28;96840;-80
2022/12/25 08:31:47;;;;;;;16.75;10.07;;;;;;;8.56;64.72;100738.91;4914015;28;96941;-78
2022/12/25 08:34:13;;;;;;;20.90;10.65;;;;;;;8.69;64.50;100734.28;4946922;28;98242;-78
2022/12/25 08:36:40;;;;;;;18.42;10.50;;;;;;;8.85;64.39;100735.72;4963444;28;98046;-78
2022/12/25 08:39:06;;;;;;;20.05;10.60;;;;;;;8.98;64.13;100741.56;4933155;28;96781;-78
2022/12/25 08:41:31;;;;;;;22.58;11.27;;;;;;;9.12;63.83;100738.66;4931255;28;97028;-78
2022/12/25 08:43:57;;;;;;;25.15;11.98;;;;;;;9.22;63.39;100748.91;4963382;28;97997;-78
2022/12/25 08:46:23;;;;;;;18.02;10.65;;;;;;;9.34;62.88;100741.66;4946392;28;101152;-78
2022/12/25 08:48:49;;;;;;;26.42;12.07;;;;;;;9.43;62.98;100747.56;4945929;28;96764;-79
2022/12/25 08:51:18;;;;;;;16.13;9.35;;;;;;;9.52;62.29;100756.97;4946822;28;97558;-78
2022/12/25 08:53:46;;;;;;;17.10;10.27;;;;;;;9.61;62.07;100751.53;4914503;28;101252;-78
2022/12/25 08:56:12;;;;;;;15.35;9.70;;;;;;;9.57;62.21;100736.78;4929905;28;101605;-78
2022/12/25 08:58:38;;;;;;;16.50;9.98;;;;;;;9.74;62.27;100752.06;4947566;28;97254;-78
2022/12/25 09:01:04;;;;;;;18.73;10.57;;;;;;;9.90;61.95;100765.69;4962825;28;97431;-78
2022/12/25 09:03:33;;;;;;;24.40;10.25;;;;;;;10.04;61.76;100760.13;4930584;28;101485;-78
2022/12/25 09:06:10;;;;;;;16.98;9.00;;;;;;;10.13;61.65;100762.50;4929564;28;101095;-78
2022/12/25 09:08:36;;;;;;;20.27;9.50;;;;;;;10.29;61.45;100766.47;4930880;28;97309;-78
2022/12/25 09:11:03;;;;;;;22.08;10.93;;;;;;;10.46;61.56;100766.06;4929836;28;97373;-78
2022/12/25 09:13:29;;;;;;;16.25;8.35;;;;;;;10.60;60.87;100773.56;4928241;28;101571;-78
2022/12/25 09:15:54;;;;;;;16.67;8.05;;;;;;;10.65;60.12;100755.94;4916886;28;101617;-80
2022/12/25 09:18:20;;;;;;;17.80;8.05;;;;;;;10.88;59.87;100769.28;4946723;28;97407;-78
2022/12/25 09:20:47;;;;;;;16.25;8.30;;;;;;;11.07;59.79;100764.34;4930624;28;97170;-78
2022/12/25 09:23:12;;;;;;;16.23;7.40;;;;;;;11.12;59.18;100751.09;4929291;28;101473;-79
2022/12/25 09:25:38;;;;;;;22.48;9.35;;;;;;;11.38;58.44;100758.19;4929910;28;101224;-79
2022/12/25 09:28:03;;;;;;;21.42;10.73;;;;;;;11.42;58.30;100757.19;4929823;28;97457;-78
2022/12/25 09:30:29;;;;;;;19.73;9.88;;;;;;;11.45;57.94;100757.09;4946627;28;97119;-78
2022/12/25 09:32:54;;;;;;;20.48;11.10;;;;;;;11.54;57.26;100754.16;4929043;28;101515;-79
2022/12/25 09:35:20;;;;;;;23.02;11.43;;;;;;;11.64;57.14;100757.41;4929780;28;101307;-78
2022/12/25 09:37:46;;;;;;;24.02;12.98;;;;;;;11.71;56.88;100753.66;4929793;28;97011;-79
2022/12/25 09:40:17;;;;;;;23.02;12.07;;;;;;;11.84;56.35;100755.88;4962341;28;97629;-77
2022/12/25 09:42:44;;;;;;;22.83;10.98;;;;;;;11.74;56.39;100724.63;4897937;28;101578;-77
2022/12/25 09:45:13;;;;;;;20.80;10.10;;;;;;;11.95;56.33;100745.91;4929188;28;101443;-78
2022/12/25 09:47:42;;;;;;;21.05;11.40;;;;;;;11.93;56.36;100730.19;4931782;28;96853;-78
2022/12/25 09:50:46;;;;;;;23.30;12.38;;;;;;;12.10;56.17;100748.03;4948978;28;97237;-78
2022/12/25 09:53:20;;;;;;;21.02;10.68;;;;;;;12.18;56.46;100746.00;4949013;28;101416;-77
2022/12/25 09:56:07;;;;;;;17.73;8.65;;;;;;;12.22;55.73;100749.41;4931550;28;97962;-77
2022/12/25 09:58:33;;;;;;;19.48;8.60;;;;;;;11.93;55.64;100753.00;4949908;28;96783;-79
2022/12/25 10:01:13;;;;;;;18.58;8.30;;;;;;;11.89;56.47;100740.84;4948517;28;96979;-79
2022/12/25 10:03:57;;;;;;;15.07;8.02;;;;;;;12.00;56.24;100754.50;4921135;28;100987;-78
2022/12/25 10:06:26;;;;;;;20.83;7.82;;;;;;;12.08;56.61;100741.09;4965224;28;101704;-78
2022/12/25 10:09:30;;;;;;;18.58;9.38;;;;;;;12.16;57.08;100737.31;4933319;28;96794;-80
2022/12/25 10:12:14;;;;;;;17.42;8.85;;;;;;;12.29;56.75;100739.50;4950997;28;97075;-78
2022/12/25 10:14:51;;;;;;;19.15;9.93;;;;;;;12.32;56.72;100735.00;4934424;28;101823;-78
2022/12/25 10:17:26;;;;;;;15.30;8.18;;;;;;;12.40;56.72;100743.50;4949886;28;101585;-81
2022/12/25 10:20:28;;;;;;;16.55;7.90;;;;;;;12.34;55.57;100742.84;4951647;28;96752;-78
2022/12/25 10:22:58;;;;;;;19.52;8.18;;;;;;;12.24;56.57;100731.75;4951704;28;97388;-81
2022/12/25 10:25:24;;;;;;;13.77;7.15;;;;;;;12.21;56.28;100730.09;4902265;28;101547;-79
2022/12/25 10:28:03;;;;;;;16.48;7.60;;;;;;;12.22;56.30;100726.56;4919069;28;98496;-80
2022/12/25 10:30:30;;;;;;;18.33;7.32;;;;;;;12.16;56.21;100728.56;4917617;28;97349;-80
2022/12/25 10:32:56;;;;;;;18.98;7.68;;;;;;;12.06;56.65;100716.59;4918702;28;97369;-80
2022/12/25 10:35:24;;;;;;;18.52;7.10;;;;;;;11.97;57.24;100716.00;4918405;28;97638;-78
2022/12/25 10:37:57;;;;;;;15.68;6.90;;;;;;;12.07;57.30;100719.19;4915466;28;101314;-79
2022/12/25 10:40:23;;;;;;;15.13;7.07;;;;;;;12.10;57.62;100715.56;4895247;28;97362;-79
2022/12/25 10:42:55;;;;;;;14.68;7.07;;;;;;;12.15;57.84;100711.03;4932289;28;97408;-79
2022/12/25 10:45:20;;;;;;;14.45;7.53;;;;;;;12.14;57.90;100704.91;4932033;28;101309;-79
2022/12/25 10:47:46;;;;;;;18.23;7.32;;;;;;;12.23;58.04;100694.06;4966002;28;97337;-79
2022/12/25 10:50:23;;;;;;;16.20;6.53;;;;;;;12.18;57.68;100698.63;4948120;28;97264;-79
2022/12/25 10:53:25;;;;;;;13.27;6.22;;;;;;;12.20;57.84;100688.06;4932822;28;96833;-79
2022/12/25 10:56:03;;;;;;;15.63;6.15;;;;;;;12.07;57.49;100679.72;4912338;28;101525;-79
2022/12/25 10:58:30;;;;;;;16.50;8.38;;;;;;;12.19;58.12;100686.34;4912537;28;97888;-79
2022/12/25 11:00:58;;;;;;;19.92;9.20;;;;;;;12.12;57.90;100688.31;4948153;28;96801;-80
2022/12/25 11:03:28;;;;;;;20.50;8.68;;;;;;;11.94;58.68;100679.28;4919256;28;96911;-78
2022/12/25 11:05:54;;;;;;;14.82;7.65;;;;;;;11.81;59.19;100672.69;4948360;28;97525;-79
2022/12/25 11:08:21;;;;;;;14.95;7.55;;;;;;;11.75;59.33;100671.13;4947706;28;101063;-79
2022/12/25 11:10:53;;;;;;;16.40;7.28;;;;;;;11.65;59.45;100667.06;4937920;28;97086;-79
2022/12/25 11:13:23;;;;;;;;;;;;;;;11.56;60.13;100660.34;4945571;28;97051;-79
2022/12/25 11:16:03;;;;;;;12.68;6.22;;;;;;;11.59;60.11;100650.63;4931703;28;101478;-79
2022/12/25 11:18:42;;;;;;;15.27;6.97;;;;;;;11.68;60.13;100645.06;4913543;28;96735;-79
2022/12/25 11:21:21;;;;;;;13.45;6.00;;;;;;;11.58;60.11;100649.78;4914713;28;97132;-79
2022/12/25 11:23:54;;;;;;;20.00;7.55;;;;;;;11.40;60.33;100637.22;4932173;28;98424;-79
2022/12/25 11:26:20;;;;;;;20.08;7.78;;;;;;;11.50;60.50;100650.03;4947612;28;97759;-79
2022/12/25 11:28:48;;;;;;;16.52;7.32;;;;;;;11.56;60.45;100648.97;4931746;28;101259;-79
2022/12/25 11:31:19;;;;;;;19.02;7.75;;;;;;;11.54;60.68;100664.78;4947171;28;97040;-79
2022/12/25 11:33:52;;;;;;;14.57;6.65;;;;;;;11.48;60.68;100664.13;4931791;28;97207;-79
2022/12/25 11:36:24;;;;;;;19.50;9.20;;;;;;;11.39;60.84;100659.16;4947588;28;98067;-80
2022/12/25 11:38:50;;;;;;;;;;;;;;;11.32;61.99;100654.13;4948839;28;101550;-79
2022/12/25 11:41:19;;;;;;;21.75;7.60;;;;;;;11.30;61.43;100644.56;4931253;28;97405;-80
2022/12/25 11:44:07;;;;;;;21.70;10.07;;;;;;;11.24;61.46;100642.13;4916225;28;96841;-79
2022/12/25 11:46:39;;;;;;;17.27;7.38;;;;;;;11.24;61.78;100647.38;4963792;28;98128;-79
2022/12/25 11:49:07;;;;;;;25.20;8.48;;;;;;;10.99;61.92;100636.75;4947728;28;97908;-79
2022/12/25 11:51:36;;;;;;;13.70;6.50;;;;;;;11.04;61.86;100653.25;4931613;28;96768;-79
2022/12/25 11:54:24;;;;;;;15.68;6.05;;;;;;;10.81;61.61;100640.81;4912348;28;97239;-80
2022/12/25 11:56:49;;;;;;;14.80;6.32;;;;;;;10.83;61.77;100645.09;4947711;28;97883;-79
2022/12/25 11:59:22;;;;;;;15.85;6.15;;;;;;;10.73;61.99;100641.03;4914459;28;101560;-79
2022/12/25 12:01:55;;;;;;;12.57;5.63;;;;;;;10.82;62.15;100639.88;4928183;28;96740;-79
2022/12/25 12:04:27;;;;;;;11.63;5.15;;;;;;;10.84;61.72;100646.81;4941334;28;97331;-79
2022/12/25 12:06:54;;;;;;;;;;;;;;;10.74;61.93;100649.78;4931532;28;101716;-79
2022/12/25 12:09:47;;;;;;;15.13;6.07;;;;;;;10.73;61.88;100627.03;4931158;28;97363;-79
2022/12/25 12:12:22;;;;;;;15.13;6.40;;;;;;;10.70;62.39;100619.25;4914525;28;97236;-79
2022/12/25 12:14:51;;;;;;;14.10;5.95;;;;;;;10.90;62.08;100634.41;4919150;28;96825;-79
2022/12/25 12:17:17;;;;;;;16.63;7.55;;;;;;;10.75;62.01;100614.75;4945102;28;101923;-79
2022/12/25 12:19:43;;;;;;;15.38;6.03;;;;;;;10.86;62.68;100625.78;4947487;28;97393;-79
2022/12/25 12:22:18;;;;;;;14.45;6.88;;;;;;;10.76;63.11;100629.56;4930856;28;96866;-79
2022/12/25 12:24:45;;;;;;;13.60;6.18;;;;;;;10.81;63.17;100632.94;4899233;28;97361;-79
2022/12/25 12:27:11;;;;;;;12.38;5.40;;;;;;;10.73;62.91;100640.16;4930475;28;100896;-80
2022/12/25 12:29:42;;;;;;;13.45;5.45;;;;;;;10.62;63.24;100622.13;4915054;28;100961;-79
2022/12/25 12:32:42;;;;;;;15.57;6.20;;;;;;;10.67;63.03;100635.09;4930618;28;96867;-80
2022/12/25 12:35:18;;;;;;;13.20;6.40;;;;;;;10.59;63.50;100622.22;4926888;28;97215;-80
2022/12/25 12:37:46;;;;;;;14.15;5.70;;;;;;;10.69;63.40;100626.28;4945337;28;101723;-79
2022/12/25 12:41:13;;;;;;;17.67;5.95;;;;;;;10.57;63.70;100631.91;4929879;28;101608;-79
2022/12/25 12:43:58;;;;;;;12.70;6.13;;;;;;;10.50;63.85;100630.34;4903494;28;97347;-79
2022/12/25 12:46:36;;;;;;;12.43;5.88;;;;;;;10.54;64.10;100630.22;4884723;28;97296;-79
2022/12/25 12:49:28;;;;;;;16.92;6.22;;;;;;;10.65;63.73;100632.53;4946913;28;101267;-79
2022/12/25 12:52:20;;;;;;;16.05;6.35;;;;;;;10.64;64.43;100639.53;4930431;28;101563;-79
2022/12/25 12:54:57;;;;;;;15.95;6.10;;;;;;;10.54;64.76;100634.63;4930477;28;96863;-79
2022/12/25 12:57:25;;;;;;;16.85;7.15;;;;;;;10.46;64.82;100618.22;4914550;28;96842;-79
2022/12/25 12:59:51;;;;;;;16.70;7.68;;;;;;;10.58;65.14;100639.72;4946376;28;97731;-79
2022/12/25 13:02:45;;;;;;;16.15;6.20;;;;;;;10.60;64.97;100631.81;4963413;28;97898;-79
2022/12/25 13:05:32;;;;;;;14.52;6.30;;;;;;;10.62;65.08;100622.13;4929542;28;96799;-79
2022/12/25 13:08:12;;;;;;;16.40;5.70;;;;;;;10.49;65.45;100624.22;4930880;28;96819;-79
2022/12/25 13:10:43;;;;;;;16.50;5.97;;;;;;;10.46;65.37;100592.81;4930552;28;97684;-79
2022/12/25 13:13:17;;;;;;;16.52;6.55;;;;;;;10.54;65.58;100616.25;4929308;28;101106;-79
2022/12/25 13:15:45;;;;;;;17.55;7.15;;;;;;;10.43;65.45;100616.53;4932856;28;97696;-78
2022/12/25 13:18:12;;;;;;;14.57;7.60;;;;;;;10.29;66.32;100618.69;4946614;28;96913;-79